createdAt,value
2017-08-20T00:00:44.996Z,77.80
2017-08-20T00:03:13.239Z,78.10
2017-08-20T00:05:41.514Z,78.60
2017-08-20T00:08:09.875Z,78.20
2017-08-20T00:10:38.111Z,78.10
2017-08-20T00:13:06.382Z,78.00
2017-08-20T00:15:34.826Z,77.70
2017-08-20T00:18:03.526Z,77.40
2017-08-20T00:20:31.780Z,77.10
2017-08-20T00:23:00.052Z,77.10
2017-08-20T00:25:28.306Z,77.00
2017-08-20T00:27:56.564Z,76.90
2017-08-20T00:30:25.576Z,76.70
2017-08-20T00:32:54.612Z,76.40
2017-08-20T00:35:22.859Z,77.00
2017-08-20T00:37:51.100Z,76.90
2017-08-20T00:40:20.110Z,76.60
2017-08-20T00:42:48.416Z,76.60
2017-08-20T00:45:17.399Z,76.60
2017-08-20T00:47:45.674Z,76.60
2017-08-20T00:50:13.912Z,76.60
2017-08-20T00:52:42.176Z,76.40
2017-08-20T00:55:11.454Z,76.30
2017-08-20T00:57:39.725Z,76.50
2017-08-20T01:00:08.002Z,76.60
2017-08-20T01:02:36.665Z,76.80
2017-08-20T01:05:04.974Z,76.60
2017-08-20T01:07:33.205Z,76.30
2017-08-20T01:10:01.489Z,76.00
2017-08-20T01:12:29.770Z,75.90
2017-08-20T01:14:58.007Z,76.20
2017-08-20T01:17:26.217Z,75.90
2017-08-20T01:19:54.510Z,75.70
2017-08-20T01:22:23.516Z,75.60
2017-08-20T01:24:51.746Z,75.60
2017-08-20T01:27:20.757Z,75.80
2017-08-20T01:29:49.998Z,75.80
2017-08-20T01:32:18.214Z,76.30
2017-08-20T01:34:46.438Z,76.00
2017-08-20T01:37:14.702Z,76.60
2017-08-20T01:39:42.993Z,75.60
2017-08-20T01:42:11.226Z,75.50
2017-08-20T01:44:40.266Z,75.10
2017-08-20T01:47:08.535Z,75.10
2017-08-20T01:49:36.787Z,75.20
2017-08-20T01:52:05.406Z,74.90
2017-08-20T01:54:33.681Z,75.00
2017-08-20T01:57:01.910Z,75.00
2017-08-20T01:59:30.236Z,75.00
2017-08-20T02:01:58.502Z,74.70
2017-08-20T02:04:26.794Z,74.90
2017-08-20T02:06:55.026Z,74.40
2017-08-20T02:09:23.410Z,74.70
2017-08-20T02:11:51.727Z,74.60
2017-08-20T02:14:19.962Z,74.70
2017-08-20T02:16:48.997Z,74.90
2017-08-20T02:19:17.245Z,74.40
2017-08-20T02:21:46.258Z,74.30
2017-08-20T02:24:14.545Z,74.30
2017-08-20T02:26:42.770Z,74.50
2017-08-20T02:29:11.790Z,75.60
2017-08-20T02:31:40.075Z,75.60
2017-08-20T02:34:08.346Z,75.90
2017-08-20T02:36:36.574Z,76.10
2017-08-20T02:39:04.840Z,76.30
2017-08-20T02:41:33.062Z,76.00
2017-08-20T02:44:02.075Z,75.60
2017-08-20T02:46:30.332Z,75.60
2017-08-20T02:48:58.580Z,75.50
2017-08-20T02:51:26.809Z,75.40
2017-08-20T02:53:55.072Z,75.30
2017-08-20T02:56:23.326Z,75.30
2017-08-20T02:58:51.564Z,75.50
2017-08-20T03:01:19.861Z,75.40
2017-08-20T03:03:48.126Z,75.30
2017-08-20T03:06:16.394Z,75.40
2017-08-20T03:08:44.623Z,75.80
2017-08-20T03:11:13.631Z,76.00
2017-08-20T03:13:41.891Z,76.00
2017-08-20T03:16:10.897Z,76.30
2017-08-20T03:18:39.942Z,76.00
2017-08-20T03:21:08.981Z,75.90
2017-08-20T03:23:38.003Z,75.70
2017-08-20T03:26:06.254Z,75.70
2017-08-20T03:28:35.250Z,75.20
2017-08-20T03:31:04.276Z,75.00
2017-08-20T03:33:32.518Z,75.00
2017-08-20T03:36:01.550Z,75.10
2017-08-20T03:38:29.823Z,75.10
2017-08-20T03:40:58.055Z,75.10
2017-08-20T03:43:26.283Z,75.10
2017-08-20T03:45:54.552Z,75.20
2017-08-20T03:48:22.786Z,75.50
2017-08-20T03:50:51.035Z,75.70
2017-08-20T03:53:19.261Z,75.80
2017-08-20T03:55:47.530Z,76.00
2017-08-20T03:58:15.784Z,75.90
2017-08-20T04:00:44.046Z,76.00
2017-08-20T04:03:12.312Z,75.80
2017-08-20T04:05:40.549Z,76.20
2017-08-20T04:08:08.830Z,76.60
2017-08-20T04:10:37.104Z,76.70
2017-08-20T04:13:06.130Z,77.00
2017-08-20T04:15:34.393Z,76.80
2017-08-20T04:18:02.667Z,77.20
2017-08-20T04:20:30.920Z,77.30
2017-08-20T04:22:59.912Z,77.30
2017-08-20T04:25:28.932Z,77.00
2017-08-20T04:27:57.186Z,77.00
2017-08-20T04:30:26.197Z,77.10
2017-08-20T04:32:54.450Z,77.10
2017-08-20T04:35:22.713Z,77.00
2017-08-20T04:37:50.963Z,76.70
2017-08-20T04:40:19.211Z,77.00
2017-08-20T04:42:47.469Z,76.90
2017-08-20T04:45:15.715Z,76.70
2017-08-20T04:47:43.970Z,76.50
2017-08-20T04:50:12.221Z,76.20
2017-08-20T04:52:40.477Z,76.20
2017-08-20T04:55:08.754Z,76.50
2017-08-20T04:57:37.052Z,76.60
2017-08-20T05:00:05.300Z,76.50
2017-08-20T05:02:33.593Z,75.90
2017-08-20T05:05:02.161Z,75.50
2017-08-20T05:07:30.452Z,76.10
2017-08-20T05:09:58.694Z,75.90
2017-08-20T05:12:26.945Z,76.20
2017-08-20T05:14:55.182Z,76.40
2017-08-20T05:17:23.453Z,76.50
2017-08-20T05:19:51.693Z,76.40
2017-08-20T05:22:19.953Z,76.30
2017-08-20T05:24:48.206Z,75.90
2017-08-20T05:27:16.474Z,76.00
2017-08-20T05:29:44.699Z,75.20
2017-08-20T05:32:12.960Z,74.50
2017-08-20T05:34:41.220Z,74.40
2017-08-20T05:37:09.502Z,74.30
2017-08-20T05:39:37.721Z,74.00
2017-08-20T05:42:06.722Z,74.10
2017-08-20T05:44:35.759Z,74.30
2017-08-20T05:47:04.014Z,74.10
2017-08-20T05:49:32.284Z,74.30
2017-08-20T05:52:01.290Z,74.30
2017-08-20T05:54:29.549Z,74.30
2017-08-20T05:56:58.595Z,73.70
2017-08-20T05:59:26.830Z,73.70
2017-08-20T06:01:55.069Z,73.40
2017-08-20T06:04:23.322Z,73.50
2017-08-20T06:06:51.611Z,72.90
2017-08-20T06:09:19.865Z,72.60
2017-08-20T06:11:48.135Z,72.40
2017-08-20T06:14:16.379Z,71.70
2017-08-20T06:16:45.414Z,72.00
2017-08-20T06:19:13.653Z,72.00
2017-08-20T06:21:41.935Z,72.10
2017-08-20T06:24:10.956Z,71.60
2017-08-20T06:26:39.263Z,71.60
2017-08-20T06:29:07.522Z,71.40
2017-08-20T06:31:35.758Z,70.90
2017-08-20T06:34:04.780Z,70.20
2017-08-20T06:36:33.066Z,70.30
2017-08-20T06:39:01.445Z,69.60
2017-08-20T06:41:29.769Z,69.70
2017-08-20T06:43:58.105Z,70.00
2017-08-20T06:46:26.352Z,70.60
2017-08-20T06:48:55.363Z,70.40
2017-08-20T06:51:23.610Z,70.40
2017-08-20T06:53:52.663Z,72.40
2017-08-20T06:56:20.905Z,72.40
2017-08-20T06:58:49.185Z,72.20
2017-08-20T07:01:17.431Z,71.70
2017-08-20T07:03:46.486Z,71.80
2017-08-20T07:06:14.759Z,71.80
2017-08-20T07:08:42.998Z,71.70
2017-08-20T07:11:11.269Z,71.60
2017-08-20T07:13:39.537Z,71.60
2017-08-20T07:16:07.794Z,71.00
2017-08-20T07:18:36.027Z,71.50
2017-08-20T07:21:04.305Z,71.60
2017-08-20T07:23:32.537Z,71.10
2017-08-20T07:26:01.566Z,71.50
2017-08-20T07:28:29.808Z,71.50
2017-08-20T07:30:58.103Z,71.50
2017-08-20T07:33:26.344Z,71.10
2017-08-20T07:35:54.610Z,70.50
2017-08-20T07:38:22.884Z,71.20
2017-08-20T07:40:51.134Z,71.10
2017-08-20T07:43:19.396Z,71.00
2017-08-20T07:45:47.684Z,70.90
2017-08-20T07:48:15.923Z,70.60
2017-08-20T07:50:44.966Z,70.30
2017-08-20T07:53:13.226Z,70.30
2017-08-20T07:55:41.497Z,70.50
2017-08-20T07:58:09.751Z,70.10
2017-08-20T08:00:38.795Z,70.20
2017-08-20T08:03:07.057Z,69.60
2017-08-20T08:05:35.285Z,68.20
2017-08-20T08:08:03.554Z,67.70
2017-08-20T08:10:31.826Z,67.40
2017-08-20T08:13:00.098Z,66.80
2017-08-20T08:15:28.329Z,66.60
2017-08-20T08:17:56.616Z,68.80
2017-08-20T08:20:24.897Z,69.20
2017-08-20T08:22:53.195Z,68.60
2017-08-20T08:25:22.031Z,67.10
2017-08-20T08:27:51.063Z,66.70
2017-08-20T08:30:19.317Z,66.60
2017-08-20T08:32:47.595Z,67.10
2017-08-20T08:35:15.861Z,66.80
2017-08-20T08:37:44.121Z,66.10
2017-08-20T08:40:12.409Z,66.10
2017-08-20T08:42:40.661Z,65.90
2017-08-20T08:45:08.961Z,65.90
2017-08-20T08:47:37.240Z,66.10
2017-08-20T08:50:05.539Z,66.20
2017-08-20T08:52:33.806Z,68.10
2017-08-20T08:55:02.091Z,68.10
2017-08-20T08:57:31.145Z,66.60
2017-08-20T08:59:59.372Z,66.60
2017-08-20T09:02:27.695Z,67.70
2017-08-20T09:04:55.922Z,67.20
2017-08-20T09:07:24.965Z,66.10
2017-08-20T09:09:53.266Z,66.10
2017-08-20T09:12:21.538Z,66.00
2017-08-20T09:14:49.791Z,64.90
2017-08-20T09:17:18.044Z,63.60
2017-08-20T09:19:46.302Z,61.50
2017-08-20T09:22:15.330Z,61.30
2017-08-20T09:24:43.614Z,61.30
2017-08-20T09:27:12.390Z,61.10
2017-08-20T09:29:40.622Z,61.20
2017-08-20T09:32:08.919Z,60.10
2017-08-20T09:34:37.209Z,60.90
2017-08-20T09:37:05.470Z,60.40
2017-08-20T09:39:34.511Z,61.10
2017-08-20T09:42:02.786Z,61.00
2017-08-20T09:44:31.035Z,59.30
2017-08-20T09:46:59.310Z,57.30
2017-08-20T09:49:28.334Z,59.90
2017-08-20T09:51:56.604Z,59.80
2017-08-20T09:54:24.865Z,59.10
2017-08-20T09:56:53.109Z,58.20
2017-08-20T09:59:22.130Z,57.70
2017-08-20T10:01:50.438Z,57.70
2017-08-20T10:04:18.700Z,57.60
2017-08-20T10:06:46.965Z,58.60
2017-08-20T10:09:15.233Z,58.10
2017-08-20T10:11:43.506Z,58.60
2017-08-20T10:14:12.508Z,56.80
2017-08-20T10:16:41.527Z,57.00
2017-08-20T10:19:09.863Z,56.90
2017-08-20T10:21:38.149Z,56.40
2017-08-20T10:24:06.438Z,56.60
2017-08-20T10:26:34.734Z,57.10
2017-08-20T10:29:03.734Z,58.00
2017-08-20T10:31:31.984Z,58.00
2017-08-20T10:34:00.235Z,58.40
2017-08-20T10:36:29.272Z,57.20
2017-08-20T10:38:57.556Z,57.10
2017-08-20T10:41:25.838Z,57.60
2017-08-20T10:43:54.062Z,56.90
2017-08-20T10:46:22.379Z,57.00
2017-08-20T10:48:50.699Z,57.40
2017-08-20T10:51:18.982Z,57.80
2017-08-20T10:53:47.267Z,57.30
2017-08-20T10:56:15.514Z,57.00
2017-08-20T10:58:43.788Z,57.30
2017-08-20T11:01:12.040Z,57.30
2017-08-20T11:03:40.293Z,57.30
2017-08-20T11:06:08.556Z,56.80
2017-08-20T11:08:36.766Z,55.30
2017-08-20T11:11:05.022Z,54.30
2017-08-20T11:13:33.306Z,55.10
2017-08-20T11:16:02.434Z,56.70
2017-08-20T11:18:30.700Z,56.60
2017-08-20T11:20:58.917Z,56.40
2017-08-20T11:23:27.176Z,55.40
2017-08-20T11:25:55.485Z,57.30
2017-08-20T11:28:23.734Z,56.80
2017-08-20T11:30:52.007Z,56.50
2017-08-20T11:33:20.277Z,56.00
2017-08-20T11:35:48.504Z,56.50
2017-08-20T11:38:17.525Z,55.70
2017-08-20T11:40:46.563Z,55.00
2017-08-20T11:43:14.824Z,55.00
2017-08-20T11:45:43.102Z,54.70
2017-08-20T11:48:11.348Z,54.70
2017-08-20T11:50:40.251Z,55.40
2017-08-20T11:53:08.546Z,55.70
2017-08-20T11:55:36.836Z,55.70
2017-08-20T11:58:05.112Z,54.10
2017-08-20T12:00:33.390Z,55.20
2017-08-20T12:03:01.685Z,55.30
2017-08-20T12:05:29.957Z,54.50
2017-08-20T12:07:58.236Z,55.00
2017-08-20T12:10:26.556Z,55.90
2017-08-20T12:12:54.821Z,56.20
2017-08-20T12:15:23.857Z,55.70
2017-08-20T12:17:52.371Z,55.70
2017-08-20T12:20:20.739Z,56.50
2017-08-20T12:22:49.065Z,56.60
2017-08-20T12:25:18.087Z,56.50
2017-08-20T12:27:46.399Z,56.40
2017-08-20T12:30:14.655Z,56.70
2017-08-20T12:32:42.929Z,57.10
2017-08-20T12:35:11.189Z,57.70
2017-08-20T12:37:39.489Z,58.20
2017-08-20T12:40:08.328Z,58.30
2017-08-20T12:42:36.594Z,58.50
2017-08-20T12:45:04.862Z,58.20
2017-08-20T12:47:33.138Z,58.70
2017-08-20T12:50:01.418Z,57.80
2017-08-20T12:52:29.695Z,57.70
2017-08-20T12:54:57.976Z,56.90
2017-08-20T12:57:26.267Z,56.50
2017-08-20T12:59:54.562Z,56.50
2017-08-20T13:02:22.811Z,54.30
2017-08-20T13:04:51.065Z,54.20
2017-08-20T13:07:19.378Z,53.60
2017-08-20T13:09:48.498Z,54.50
2017-08-20T13:12:16.796Z,55.60
2017-08-20T13:14:45.064Z,54.60
2017-08-20T13:17:13.435Z,55.30
2017-08-20T13:19:41.761Z,55.50
2017-08-20T13:22:10.037Z,54.60
2017-08-20T13:24:38.320Z,54.10
2017-08-20T13:27:06.629Z,53.70
2017-08-20T13:29:34.883Z,52.60
2017-08-20T13:32:03.172Z,52.70
2017-08-20T13:34:32.410Z,52.40
2017-08-20T13:37:00.705Z,52.20
2017-08-20T13:39:28.979Z,51.50
2017-08-20T13:41:57.235Z,51.40
2017-08-20T13:44:25.481Z,51.30
2017-08-20T13:46:53.955Z,51.00
2017-08-20T13:49:22.274Z,52.70
2017-08-20T13:51:50.551Z,51.60
2017-08-20T13:54:18.804Z,52.20
2017-08-20T13:56:47.123Z,51.10
2017-08-20T13:59:15.390Z,52.40
2017-08-20T14:01:43.641Z,52.00
2017-08-20T14:04:11.929Z,51.30
2017-08-20T14:06:40.991Z,50.00
2017-08-20T14:09:09.229Z,50.00
2017-08-20T14:11:37.809Z,50.90
2017-08-20T14:14:06.493Z,50.90
2017-08-20T14:16:34.787Z,50.20
2017-08-20T14:19:03.150Z,50.70
2017-08-20T14:21:31.403Z,50.60
2017-08-20T14:24:00.419Z,49.70
2017-08-20T14:26:28.819Z,49.70
2017-08-20T14:28:57.050Z,51.10
2017-08-20T14:31:25.357Z,50.30
2017-08-20T14:33:53.598Z,50.30
2017-08-20T14:36:22.631Z,49.60
2017-08-20T14:38:50.898Z,49.60
2017-08-20T14:41:20.007Z,49.50
2017-08-20T14:43:48.284Z,49.30
2017-08-20T14:46:16.511Z,49.70
2017-08-20T14:48:45.558Z,49.00
2017-08-20T14:51:14.036Z,49.00
2017-08-20T14:53:42.285Z,49.40
2017-08-20T14:56:10.585Z,49.70
2017-08-20T14:58:38.837Z,51.10
2017-08-20T15:01:07.097Z,51.10
2017-08-20T15:03:36.150Z,52.40
2017-08-20T15:06:04.431Z,52.30
2017-08-20T15:08:32.705Z,51.70
2017-08-20T15:11:01.030Z,52.00
2017-08-20T15:13:29.333Z,52.90
2017-08-20T15:15:57.583Z,56.40
2017-08-20T15:18:25.853Z,58.80
2017-08-20T15:20:54.112Z,61.90
2017-08-20T15:23:22.551Z,65.60
2017-08-20T15:25:50.856Z,65.40
2017-08-20T15:28:20.427Z,67.40
2017-08-20T15:30:48.801Z,64.30
2017-08-20T15:33:17.117Z,66.30
2017-08-20T15:35:45.402Z,66.60
2017-08-20T15:38:14.475Z,62.10
2017-08-20T15:40:42.763Z,62.10
2017-08-20T15:43:11.010Z,64.00
2017-08-20T15:45:39.310Z,67.60
2017-08-20T15:48:07.895Z,66.50
2017-08-20T15:50:36.191Z,66.00
2017-08-20T15:53:04.625Z,63.90
2017-08-20T15:55:32.922Z,62.70
2017-08-20T15:58:01.207Z,62.30
2017-08-20T16:00:29.532Z,60.10
2017-08-20T16:02:58.577Z,61.00
2017-08-20T16:05:26.872Z,60.90
2017-08-20T16:07:55.148Z,61.20
2017-08-20T16:10:23.418Z,61.70
2017-08-20T16:12:51.689Z,61.80
2017-08-20T16:15:20.122Z,64.30
2017-08-20T16:17:48.409Z,63.10
2017-08-20T16:20:16.678Z,61.70
2017-08-20T16:22:44.952Z,59.60
2017-08-20T16:25:13.241Z,58.00
2017-08-20T16:27:41.499Z,54.10
2017-08-20T16:30:09.820Z,56.20
2017-08-20T16:32:38.095Z,56.80
2017-08-20T16:35:06.368Z,57.30
2017-08-20T16:37:34.877Z,58.20
2017-08-20T16:40:03.172Z,59.60
2017-08-20T16:42:31.424Z,55.60
2017-08-20T16:44:59.724Z,56.90
2017-08-20T16:47:28.004Z,57.60
2017-08-20T16:49:56.284Z,56.70
2017-08-20T16:52:24.588Z,56.70
2017-08-20T16:54:52.918Z,57.30
2017-08-20T16:57:21.249Z,58.40
2017-08-20T16:59:50.300Z,57.40
2017-08-20T17:02:18.576Z,57.30
2017-08-20T17:04:46.877Z,58.40
2017-08-20T17:07:15.921Z,56.50
2017-08-20T17:09:44.229Z,56.60
2017-08-20T17:12:12.471Z,58.20
2017-08-20T17:14:41.744Z,58.60
2017-08-20T17:17:10.820Z,57.20
2017-08-20T17:19:39.119Z,57.10
2017-08-20T17:22:08.184Z,58.00
2017-08-20T17:24:36.453Z,57.80
2017-08-20T17:27:04.757Z,57.30
2017-08-20T17:29:33.057Z,58.50
2017-08-20T17:32:02.090Z,57.90
2017-08-20T17:34:30.394Z,57.90
2017-08-20T17:36:58.762Z,58.00
2017-08-20T17:39:27.017Z,58.90
2017-08-20T17:41:55.275Z,58.40
2017-08-20T17:44:23.728Z,57.80
2017-08-20T17:46:52.043Z,57.20
2017-08-20T17:49:21.045Z,57.20
2017-08-20T17:51:49.488Z,57.20
2017-08-20T17:54:17.777Z,57.00
2017-08-20T17:56:46.003Z,56.60
2017-08-20T17:59:14.388Z,57.00
2017-08-20T18:01:42.677Z,56.70
2017-08-20T18:04:10.982Z,57.30
2017-08-20T18:06:40.040Z,57.80
2017-08-20T18:09:08.335Z,58.20
2017-08-20T18:11:36.655Z,57.50
2017-08-20T18:14:05.787Z,58.80
2017-08-20T18:16:34.068Z,58.80
2017-08-20T18:19:02.355Z,58.40
2017-08-20T18:21:30.677Z,59.50
2017-08-20T18:23:59.764Z,60.80
2017-08-20T18:26:30.864Z,60.30
2017-08-20T18:28:59.792Z,60.20
2017-08-20T18:31:28.963Z,60.40
2017-08-20T18:33:58.428Z,60.40
2017-08-20T18:36:26.729Z,60.40
2017-08-20T18:38:55.015Z,61.40
2017-08-20T18:41:25.493Z,62.00
2017-08-20T18:43:55.518Z,61.20
2017-08-20T18:46:24.862Z,61.10
2017-08-20T18:48:53.439Z,61.10
2017-08-20T18:51:22.147Z,61.40
2017-08-20T18:53:50.390Z,62.90
2017-08-20T18:56:18.987Z,63.40
2017-08-20T18:58:50.530Z,64.10
2017-08-20T19:01:20.280Z,63.60
2017-08-20T19:03:49.347Z,64.30
2017-08-20T19:06:17.804Z,64.20
2017-08-20T19:08:47.211Z,64.10
2017-08-20T19:11:15.656Z,63.90
2017-08-20T19:13:46.244Z,63.50
2017-08-20T19:16:16.468Z,63.90
2017-08-20T19:18:48.072Z,64.60
2017-08-20T19:21:19.010Z,65.00
2017-08-20T19:23:47.714Z,65.80
2017-08-20T19:26:19.394Z,65.50
2017-08-20T19:28:49.575Z,65.50
2017-08-20T19:31:20.906Z,65.50
2017-08-20T19:33:51.114Z,66.30
2017-08-20T19:36:20.515Z,67.00
2017-08-20T19:38:49.627Z,66.70
2017-08-20T19:41:19.320Z,67.10
2017-08-20T19:43:51.280Z,67.40
2017-08-20T19:46:22.008Z,67.40
2017-08-20T19:48:50.883Z,67.80
2017-08-20T19:51:19.288Z,70.10
2017-08-20T19:53:48.804Z,70.20
2017-08-20T19:56:17.580Z,70.40
2017-08-20T19:58:46.062Z,70.30
2017-08-20T20:01:14.389Z,70.60
2017-08-20T20:03:43.407Z,72.00
2017-08-20T20:06:11.846Z,72.00
2017-08-20T20:08:40.238Z,71.80
2017-08-20T20:11:08.484Z,72.40
2017-08-20T20:13:36.904Z,72.80
2017-08-20T20:16:05.148Z,73.10
2017-08-20T20:18:33.504Z,72.60
2017-08-20T20:21:01.835Z,72.70
2017-08-20T20:23:30.186Z,73.20
2017-08-20T20:25:58.800Z,72.60
2017-08-20T20:28:27.094Z,73.00
2017-08-20T20:30:55.339Z,73.70
2017-08-20T20:33:23.868Z,73.90
2017-08-20T20:35:52.174Z,74.30
2017-08-20T20:38:20.477Z,75.40
2017-08-20T20:40:48.741Z,75.00
2017-08-20T20:43:17.024Z,76.40
2017-08-20T20:45:45.360Z,75.90
2017-08-20T20:48:13.805Z,75.60
2017-08-20T20:50:42.054Z,75.40
2017-08-20T20:53:10.623Z,76.40
2017-08-20T20:55:38.895Z,77.10
2017-08-20T20:58:07.157Z,76.70
2017-08-20T21:00:35.465Z,76.60
2017-08-20T21:03:04.077Z,77.40
2017-08-20T21:05:32.372Z,78.00
2017-08-20T21:08:00.673Z,77.90
2017-08-20T21:10:28.982Z,77.80
2017-08-20T21:12:58.170Z,77.40
2017-08-20T21:15:26.428Z,77.80
2017-08-20T21:17:55.428Z,78.30
2017-08-20T21:20:23.703Z,78.30
2017-08-20T21:22:52.736Z,78.00
2017-08-20T21:25:21.026Z,78.00
2017-08-20T21:27:49.271Z,78.50
2017-08-20T21:30:18.350Z,78.80
2017-08-20T21:32:46.619Z,78.80
2017-08-20T21:35:14.920Z,78.90
2017-08-20T21:37:43.200Z,79.30
2017-08-20T21:40:11.490Z,79.20
2017-08-20T21:42:39.778Z,79.50
2017-08-20T21:45:08.041Z,79.80
2017-08-20T21:47:36.325Z,79.90
2017-08-20T21:50:04.778Z,80.20
2017-08-20T21:52:33.167Z,80.70
2017-08-20T21:55:01.456Z,81.00
2017-08-20T21:57:29.792Z,81.10
2017-08-20T21:59:58.835Z,81.40
2017-08-20T22:02:27.110Z,81.30
2017-08-20T22:04:55.478Z,80.90
2017-08-20T22:07:23.776Z,81.30
2017-08-20T22:09:52.005Z,81.80
2017-08-20T22:12:20.266Z,82.10
2017-08-20T22:14:49.281Z,82.10
2017-08-20T22:17:17.546Z,82.00
2017-08-20T22:19:46.602Z,82.50
2017-08-20T22:22:14.858Z,82.50
2017-08-20T22:24:43.135Z,82.20
2017-08-20T22:27:11.377Z,82.20
2017-08-20T22:29:39.685Z,82.20
2017-08-20T22:32:07.922Z,82.20
2017-08-20T22:34:36.934Z,83.00
2017-08-20T22:37:05.225Z,82.40
2017-08-20T22:39:33.595Z,82.20
2017-08-20T22:42:01.859Z,82.10
2017-08-20T22:44:30.889Z,81.80
2017-08-20T22:46:59.261Z,81.80
2017-08-20T22:49:28.289Z,82.50
2017-08-20T22:51:56.564Z,82.50
2017-08-20T22:54:24.831Z,82.70
2017-08-20T22:56:53.085Z,83.00
2017-08-20T22:59:21.348Z,83.00
2017-08-20T23:01:49.615Z,83.10
2017-08-20T23:04:18.667Z,83.40
2017-08-20T23:06:47.322Z,83.40
2017-08-20T23:09:15.549Z,83.40
2017-08-20T23:11:43.820Z,83.60
2017-08-20T23:14:12.073Z,83.70
2017-08-20T23:16:40.462Z,84.00
2017-08-20T23:19:08.722Z,83.90
2017-08-20T23:21:36.971Z,84.00
2017-08-20T23:24:05.383Z,84.00
2017-08-20T23:26:33.617Z,83.70
2017-08-20T23:29:02.106Z,83.70
2017-08-20T23:31:30.376Z,83.60
2017-08-20T23:33:58.665Z,83.60
2017-08-20T23:36:26.925Z,83.60
2017-08-20T23:38:55.946Z,83.50
2017-08-20T23:41:24.162Z,83.50
2017-08-20T23:43:52.463Z,83.40
2017-08-20T23:46:20.736Z,83.10
2017-08-20T23:48:49.803Z,82.70
2017-08-20T23:51:18.037Z,82.70
2017-08-20T23:53:46.282Z,82.60
2017-08-20T23:56:14.555Z,82.80
2017-08-20T23:58:42.793Z,83.20
